createdAt,value
2017-10-23T00:00:48.012Z,0.00
2017-10-23T00:01:47.972Z,0.00
2017-10-23T00:02:47.943Z,0.00
2017-10-23T00:03:47.899Z,0.00
2017-10-23T00:04:47.871Z,0.00
2017-10-23T00:05:47.830Z,0.00
2017-10-23T00:06:47.797Z,0.00
2017-10-23T00:07:47.756Z,0.00
2017-10-23T00:08:47.725Z,0.00
2017-10-23T00:09:47.685Z,0.00
2017-10-23T00:10:47.644Z,0.00
2017-10-23T00:11:47.607Z,0.00
2017-10-23T00:12:47.581Z,0.00
2017-10-23T00:13:47.541Z,0.00
2017-10-23T00:14:47.501Z,0.00
2017-10-23T00:15:47.464Z,0.00
2017-10-23T00:16:47.425Z,0.00
2017-10-23T00:17:47.398Z,0.00
2017-10-23T00:18:47.354Z,0.00
2017-10-23T00:19:47.328Z,0.00
2017-10-23T00:20:47.286Z,0.00
2017-10-23T00:21:47.257Z,0.00
2017-10-23T00:22:47.212Z,0.00
2017-10-23T00:23:47.189Z,0.00
2017-10-23T00:24:47.142Z,0.00
2017-10-23T00:25:47.100Z,0.00
2017-10-23T00:26:47.066Z,0.00
2017-10-23T00:27:47.030Z,0.00
2017-10-23T00:28:46.993Z,0.00
2017-10-23T00:29:46.955Z,0.00
2017-10-23T00:30:46.937Z,0.00
2017-10-23T00:31:46.883Z,0.00
2017-10-23T00:32:46.847Z,0.00
2017-10-23T00:33:46.811Z,0.00
2017-10-23T00:34:46.773Z,0.00
2017-10-23T00:35:46.756Z,0.00
2017-10-23T00:36:46.700Z,0.00
2017-10-23T00:37:46.675Z,0.00
2017-10-23T00:38:46.630Z,0.00
2017-10-23T00:39:46.599Z,0.00
2017-10-23T00:40:46.563Z,0.00
2017-10-23T00:41:46.517Z,0.00
2017-10-23T00:42:46.492Z,0.00
2017-10-23T00:43:46.454Z,0.00
2017-10-23T00:44:46.410Z,0.00
2017-10-23T00:45:46.374Z,0.00
2017-10-23T00:46:46.339Z,0.00
2017-10-23T00:47:46.310Z,0.00
2017-10-23T00:48:46.339Z,0.00
2017-10-23T00:49:46.237Z,0.00
2017-10-23T00:50:46.199Z,0.00
2017-10-23T00:51:46.156Z,0.00
2017-10-23T00:52:46.129Z,0.00
2017-10-23T00:53:46.089Z,0.00
2017-10-23T00:54:46.046Z,0.00
2017-10-23T00:55:46.010Z,0.00
2017-10-23T00:56:45.980Z,0.00
2017-10-23T00:57:45.936Z,0.00
2017-10-23T00:58:45.906Z,0.00
2017-10-23T00:59:45.865Z,0.00
2017-10-23T01:00:45.830Z,0.00
2017-10-23T01:01:45.795Z,0.00
2017-10-23T01:02:45.763Z,0.00
2017-10-23T01:03:45.724Z,0.00
2017-10-23T01:04:45.685Z,0.00
2017-10-23T01:05:45.650Z,0.00
2017-10-23T01:06:45.610Z,0.00
2017-10-23T01:07:45.575Z,0.00
2017-10-23T01:08:45.547Z,0.00
2017-10-23T01:09:45.510Z,0.00
2017-10-23T01:10:45.475Z,0.00
2017-10-23T01:11:45.430Z,0.00
2017-10-23T01:12:45.395Z,0.00
2017-10-23T01:13:45.356Z,0.00
2017-10-23T01:14:45.329Z,0.00
2017-10-23T01:15:45.286Z,0.00
2017-10-23T01:16:45.255Z,0.00
2017-10-23T01:17:45.217Z,0.00
2017-10-23T01:18:45.174Z,0.00
2017-10-23T01:19:45.139Z,0.00
2017-10-23T01:20:45.100Z,0.00
2017-10-23T01:21:45.064Z,0.00
2017-10-23T01:22:45.027Z,0.00
2017-10-23T01:23:44.997Z,0.00
2017-10-23T01:24:44.955Z,0.00
2017-10-23T01:25:44.952Z,0.00
2017-10-23T01:26:44.958Z,0.00
2017-10-23T01:27:44.862Z,0.00
2017-10-23T01:28:44.808Z,0.00
2017-10-23T01:29:44.775Z,0.00
2017-10-23T01:30:44.743Z,0.00
2017-10-23T01:31:44.732Z,0.00
2017-10-23T01:32:44.667Z,0.00
2017-10-23T01:33:44.631Z,0.00
2017-10-23T01:34:44.607Z,0.00
2017-10-23T01:35:44.562Z,0.00
2017-10-23T01:36:44.524Z,0.00
2017-10-23T01:37:44.548Z,0.00
2017-10-23T01:38:44.449Z,0.00
2017-10-23T01:39:44.407Z,0.00
2017-10-23T01:40:44.372Z,0.00
2017-10-23T01:41:44.341Z,0.00
2017-10-23T01:42:44.310Z,0.00
2017-10-23T01:43:44.264Z,0.00
2017-10-23T01:44:44.226Z,0.00
2017-10-23T01:45:44.205Z,0.00
2017-10-23T01:46:44.160Z,0.00
2017-10-23T01:47:44.150Z,0.00
2017-10-23T01:48:44.081Z,0.00
2017-10-23T01:49:44.052Z,0.00
2017-10-23T01:50:44.019Z,0.00
2017-10-23T01:51:43.974Z,0.00
2017-10-23T01:52:43.937Z,0.00
2017-10-23T01:53:43.901Z,0.00
2017-10-23T01:54:43.863Z,0.00
2017-10-23T01:55:43.827Z,0.00
2017-10-23T01:56:43.789Z,0.00
2017-10-23T01:57:43.749Z,0.00
2017-10-23T01:58:43.716Z,0.00
2017-10-23T01:59:43.685Z,0.00
2017-10-23T02:00:43.643Z,0.00
2017-10-23T02:01:43.613Z,0.00
2017-10-23T02:02:43.572Z,0.00
2017-10-23T02:03:43.533Z,0.00
2017-10-23T02:04:43.497Z,0.00
2017-10-23T02:05:43.461Z,0.00
2017-10-23T02:06:43.447Z,0.00
2017-10-23T02:07:43.394Z,0.00
2017-10-23T02:08:43.348Z,0.00
2017-10-23T02:09:43.312Z,0.00
2017-10-23T02:10:43.277Z,0.00
2017-10-23T02:11:43.248Z,0.00
2017-10-23T02:12:43.207Z,0.00
2017-10-23T02:13:43.182Z,0.00
2017-10-23T02:14:43.131Z,0.00
2017-10-23T02:15:43.093Z,0.00
2017-10-23T02:16:43.057Z,0.00
2017-10-23T02:17:43.047Z,0.00
2017-10-23T02:18:42.982Z,0.00
2017-10-23T02:19:42.960Z,0.00
2017-10-23T02:20:42.923Z,0.00
2017-10-23T02:21:42.878Z,0.00
2017-10-23T02:22:42.843Z,0.00
2017-10-23T02:23:42.810Z,0.00
2017-10-23T02:24:42.763Z,0.00
2017-10-23T02:25:42.727Z,0.00
2017-10-23T02:26:42.690Z,0.00
2017-10-23T02:27:42.661Z,0.00
2017-10-23T02:28:42.622Z,0.00
2017-10-23T02:29:42.582Z,0.00
2017-10-23T02:30:42.553Z,0.00
2017-10-23T02:31:42.524Z,0.00
2017-10-23T02:32:42.476Z,0.00
2017-10-23T02:33:42.447Z,0.00
2017-10-23T02:34:42.437Z,0.00
2017-10-23T02:35:42.358Z,0.00
2017-10-23T02:36:42.325Z,0.00
2017-10-23T02:37:42.288Z,0.00
2017-10-23T02:38:42.252Z,0.00
2017-10-23T02:39:42.214Z,0.00
2017-10-23T02:40:42.178Z,0.00
2017-10-23T02:41:42.145Z,0.00
2017-10-23T02:42:42.105Z,0.00
2017-10-23T02:43:42.068Z,0.00
2017-10-23T02:44:42.032Z,0.00
2017-10-23T02:45:41.995Z,0.00
2017-10-23T02:46:41.964Z,0.00
2017-10-23T02:47:41.922Z,0.00
2017-10-23T02:48:41.890Z,0.00
2017-10-23T02:49:41.865Z,0.00
2017-10-23T02:50:41.818Z,0.00
2017-10-23T02:51:41.787Z,0.00
2017-10-23T02:52:41.745Z,0.00
2017-10-23T02:53:41.708Z,0.00
2017-10-23T02:54:41.670Z,0.00
2017-10-23T02:55:41.629Z,0.00
2017-10-23T02:56:41.597Z,0.00
2017-10-23T02:57:41.562Z,0.00
2017-10-23T02:58:41.527Z,0.00
2017-10-23T02:59:41.485Z,0.00
2017-10-23T03:00:41.461Z,0.00
2017-10-23T03:01:41.429Z,0.00
2017-10-23T03:02:41.400Z,0.00
2017-10-23T03:03:41.352Z,0.00
2017-10-23T03:04:41.326Z,0.00
2017-10-23T03:05:41.269Z,0.00
2017-10-23T03:06:41.233Z,0.00
2017-10-23T03:07:41.196Z,0.00
2017-10-23T03:08:41.162Z,0.00
2017-10-23T03:09:41.130Z,0.00
2017-10-23T03:10:41.087Z,0.00
2017-10-23T03:11:41.044Z,0.00
2017-10-23T03:12:41.009Z,0.00
2017-10-23T03:13:40.977Z,0.00
2017-10-23T03:14:40.958Z,0.00
2017-10-23T03:15:40.902Z,0.00
2017-10-23T03:16:40.868Z,0.00
2017-10-23T03:17:40.838Z,0.00
2017-10-23T03:18:40.790Z,0.00
2017-10-23T03:19:40.776Z,0.00
2017-10-23T03:20:40.717Z,0.00
2017-10-23T03:21:40.688Z,0.00
2017-10-23T03:22:40.652Z,0.00
2017-10-23T03:23:40.611Z,0.00
2017-10-23T03:24:40.579Z,0.00
2017-10-23T03:25:40.534Z,0.00
2017-10-23T03:26:40.503Z,0.00
2017-10-23T03:27:40.461Z,0.00
2017-10-23T03:28:40.430Z,0.00
2017-10-23T03:29:40.395Z,0.00
2017-10-23T03:30:40.355Z,0.00
2017-10-23T03:31:40.312Z,0.00
2017-10-23T03:32:40.283Z,0.00
2017-10-23T03:33:40.247Z,0.00
2017-10-23T03:34:40.205Z,0.00
2017-10-23T03:35:40.167Z,0.00
2017-10-23T03:36:40.129Z,0.00
2017-10-23T03:37:40.095Z,0.00
2017-10-23T03:38:40.061Z,0.00
2017-10-23T03:39:40.025Z,0.00
2017-10-23T03:40:39.986Z,0.00
2017-10-23T03:41:39.947Z,0.00
2017-10-23T03:42:39.911Z,0.00
2017-10-23T03:43:39.877Z,0.00
2017-10-23T03:44:39.833Z,0.00
2017-10-23T03:45:39.798Z,0.00
2017-10-23T03:46:39.777Z,0.00
2017-10-23T03:47:39.733Z,0.00
2017-10-23T03:48:39.692Z,0.00
2017-10-23T03:49:39.654Z,0.00
2017-10-23T03:50:39.625Z,0.00
2017-10-23T03:51:39.581Z,0.00
2017-10-23T03:52:39.542Z,0.00
2017-10-23T03:53:39.515Z,0.00
2017-10-23T03:54:39.473Z,0.00
2017-10-23T03:55:39.431Z,0.00
2017-10-23T03:56:39.393Z,0.00
2017-10-23T03:57:39.361Z,0.00
2017-10-23T03:58:39.319Z,0.00
2017-10-23T03:59:39.364Z,0.00
2017-10-23T04:00:39.257Z,0.00
2017-10-23T04:01:39.219Z,0.00
2017-10-23T04:02:39.187Z,0.00
2017-10-23T04:03:39.130Z,0.00
2017-10-23T04:04:39.106Z,0.00
2017-10-23T04:05:39.061Z,0.00
2017-10-23T04:06:39.035Z,0.00
2017-10-23T04:07:39.002Z,0.00
2017-10-23T04:08:38.976Z,0.00
2017-10-23T04:09:38.909Z,0.00
2017-10-23T04:10:38.877Z,0.00
2017-10-23T04:11:38.848Z,0.00
2017-10-23T04:12:38.799Z,0.00
2017-10-23T04:13:38.763Z,0.00
2017-10-23T04:14:38.723Z,0.00
2017-10-23T04:15:38.693Z,0.00
2017-10-23T04:16:38.654Z,0.00
2017-10-23T04:17:38.620Z,0.00
2017-10-23T04:18:38.579Z,0.00
2017-10-23T04:19:38.541Z,0.00
2017-10-23T04:20:38.502Z,0.00
2017-10-23T04:21:38.469Z,0.00
2017-10-23T04:22:38.433Z,0.00
2017-10-23T04:23:38.387Z,0.00
2017-10-23T04:24:38.352Z,0.00
2017-10-23T04:25:38.320Z,0.00
2017-10-23T04:26:38.289Z,0.00
2017-10-23T04:27:38.240Z,0.00
2017-10-23T04:28:38.218Z,0.00
2017-10-23T04:29:38.180Z,0.00
2017-10-23T04:30:38.135Z,0.00
2017-10-23T04:31:38.102Z,0.00
2017-10-23T04:32:38.065Z,0.00
2017-10-23T04:33:38.020Z,0.00
2017-10-23T04:34:37.980Z,0.00
2017-10-23T04:35:37.958Z,0.00
2017-10-23T04:36:37.921Z,0.00
2017-10-23T04:37:37.870Z,0.00
2017-10-23T04:38:37.834Z,0.00
2017-10-23T04:39:37.797Z,0.00
2017-10-23T04:40:37.758Z,0.00
2017-10-23T04:41:37.721Z,0.00
2017-10-23T04:42:37.697Z,0.00
2017-10-23T04:43:37.652Z,0.00
2017-10-23T04:44:37.616Z,0.00
2017-10-23T04:45:37.571Z,0.00
2017-10-23T04:46:37.542Z,0.00
2017-10-23T04:47:37.498Z,0.00
2017-10-23T04:48:37.467Z,0.00
2017-10-23T04:49:37.436Z,0.00
2017-10-23T04:50:37.397Z,0.00
2017-10-23T04:51:37.359Z,0.00
2017-10-23T04:52:37.316Z,0.00
2017-10-23T04:53:37.281Z,0.00
2017-10-23T04:54:37.243Z,0.00
2017-10-23T04:55:37.204Z,0.00
2017-10-23T04:56:37.178Z,0.00
2017-10-23T04:57:37.133Z,0.00
2017-10-23T04:58:37.107Z,0.00
2017-10-23T04:59:37.067Z,0.00
2017-10-23T05:00:37.019Z,0.00
2017-10-23T05:01:36.984Z,0.00
2017-10-23T05:02:36.955Z,0.00
2017-10-23T05:03:36.920Z,0.00
2017-10-23T05:04:36.882Z,0.00
2017-10-23T05:05:36.835Z,0.00
2017-10-23T05:06:36.816Z,0.00
2017-10-23T05:07:36.765Z,0.00
2017-10-23T05:08:36.729Z,0.00
2017-10-23T05:09:36.691Z,0.00
2017-10-23T05:10:36.661Z,0.00
2017-10-23T05:11:36.634Z,0.00
2017-10-23T05:12:36.579Z,0.00
2017-10-23T05:13:36.542Z,0.00
2017-10-23T05:14:36.503Z,0.00
2017-10-23T05:15:36.473Z,4.00
2017-10-23T05:16:36.440Z,4.00
2017-10-23T05:17:36.395Z,4.00
2017-10-23T05:18:36.363Z,0.00
2017-10-23T05:19:36.321Z,4.00
2017-10-23T05:20:36.282Z,4.00
2017-10-23T05:21:36.247Z,4.00
2017-10-23T05:22:36.210Z,4.00
2017-10-23T05:23:36.177Z,8.00
2017-10-23T05:24:36.138Z,8.00
2017-10-23T05:25:36.111Z,8.00
2017-10-23T05:26:36.067Z,8.00
2017-10-23T05:27:36.025Z,16.00
2017-10-23T05:28:35.988Z,16.00
2017-10-23T05:29:35.958Z,16.00
2017-10-23T05:30:35.916Z,20.00
2017-10-23T05:31:35.880Z,24.00
2017-10-23T05:32:35.848Z,32.00
2017-10-23T05:33:35.809Z,32.00
2017-10-23T05:34:35.779Z,40.00
2017-10-23T05:35:35.730Z,44.00
2017-10-23T05:36:35.695Z,52.00
2017-10-23T05:37:35.657Z,56.00
2017-10-23T05:38:35.620Z,64.00
2017-10-23T05:39:35.606Z,72.00
2017-10-23T05:40:35.563Z,80.00
2017-10-23T05:41:35.516Z,84.00
2017-10-23T05:42:35.487Z,88.00
2017-10-23T05:43:35.435Z,100.00
2017-10-23T05:44:35.399Z,108.00
2017-10-23T05:45:35.367Z,124.00
2017-10-23T05:46:35.328Z,132.00
2017-10-23T05:47:35.292Z,144.00
2017-10-23T05:48:35.253Z,156.00
2017-10-23T05:49:35.243Z,168.00
2017-10-23T05:50:35.193Z,184.00
2017-10-23T05:51:35.146Z,196.00
2017-10-23T05:52:35.114Z,208.00
2017-10-23T05:53:35.068Z,224.00
2017-10-23T05:54:35.033Z,236.00
2017-10-23T05:55:34.996Z,248.00
2017-10-23T05:56:34.966Z,256.00
2017-10-23T05:57:34.941Z,260.00
2017-10-23T05:58:34.892Z,260.00
2017-10-23T05:59:34.849Z,256.00
2017-10-23T06:00:34.811Z,252.00
2017-10-23T06:01:34.780Z,260.00
2017-10-23T06:02:34.739Z,264.00
2017-10-23T06:03:34.709Z,268.00
2017-10-23T06:04:34.673Z,268.00
2017-10-23T06:05:34.631Z,268.00
2017-10-23T06:06:34.593Z,268.00
2017-10-23T06:07:34.552Z,268.00
2017-10-23T06:08:34.523Z,268.00
2017-10-23T06:09:34.483Z,280.00
2017-10-23T06:10:34.450Z,292.00
2017-10-23T06:11:34.472Z,316.00
2017-10-23T06:12:34.369Z,352.00
2017-10-23T06:13:34.349Z,396.00
2017-10-23T06:14:34.330Z,452.00
2017-10-23T06:15:34.266Z,520.00
2017-10-23T06:16:34.228Z,588.00
2017-10-23T06:17:34.214Z,664.00
2017-10-23T06:18:34.153Z,748.00
2017-10-23T06:19:34.172Z,852.00
2017-10-23T06:20:34.109Z,968.00
2017-10-23T06:21:34.072Z,1052.00
2017-10-23T06:22:34.013Z,1104.00
2017-10-23T06:23:33.971Z,1164.00
2017-10-23T06:24:33.946Z,1228.00
2017-10-23T06:25:33.929Z,1280.00
2017-10-23T06:26:33.876Z,1328.00
2017-10-23T06:27:33.855Z,1364.00
2017-10-23T06:28:33.791Z,1412.00
2017-10-23T06:29:33.760Z,1480.00
2017-10-23T06:30:33.732Z,1560.00
2017-10-23T06:31:33.683Z,1604.00
2017-10-23T06:32:33.648Z,1628.00
2017-10-23T06:33:33.621Z,1704.00
2017-10-23T06:34:33.628Z,1764.00
2017-10-23T06:35:33.538Z,1784.00
2017-10-23T06:36:33.546Z,1800.00
2017-10-23T06:37:33.478Z,1836.00
2017-10-23T06:38:33.436Z,1920.00
2017-10-23T06:39:33.477Z,1996.00
2017-10-23T06:40:33.354Z,2024.00
2017-10-23T06:41:33.321Z,2060.00
2017-10-23T06:42:33.287Z,2096.00
2017-10-23T06:43:33.281Z,2144.00
2017-10-23T06:44:33.207Z,2124.00
2017-10-23T06:45:33.185Z,2044.00
2017-10-23T06:46:33.153Z,1956.00
2017-10-23T06:47:33.097Z,1900.00
2017-10-23T06:48:33.097Z,1868.00
2017-10-23T06:49:33.024Z,1808.00
2017-10-23T06:50:32.994Z,1688.00
2017-10-23T06:51:32.953Z,1540.00
2017-10-23T06:52:32.921Z,1396.00
2017-10-23T06:53:32.887Z,1292.00
2017-10-23T06:54:32.845Z,1208.00
2017-10-23T06:55:32.814Z,1148.00
2017-10-23T06:56:32.772Z,1112.00
2017-10-23T06:57:32.745Z,1092.00
2017-10-23T06:58:32.705Z,1072.00
2017-10-23T06:59:32.662Z,1040.00
2017-10-23T07:00:32.625Z,1020.00
2017-10-23T07:01:32.597Z,1000.00
2017-10-23T07:02:32.554Z,996.00
2017-10-23T07:03:32.521Z,992.00
2017-10-23T07:04:32.481Z,992.00
2017-10-23T07:05:32.451Z,988.00
2017-10-23T07:06:32.418Z,1000.00
2017-10-23T07:07:32.376Z,1028.00
2017-10-23T07:08:32.336Z,1044.00
2017-10-23T07:09:32.309Z,1048.00
2017-10-23T07:10:32.266Z,1044.00
2017-10-23T07:11:32.229Z,1044.00
2017-10-23T07:12:32.197Z,1072.00
2017-10-23T07:13:32.181Z,1044.00
2017-10-23T07:14:32.121Z,1004.00
2017-10-23T07:15:32.090Z,1032.00
2017-10-23T07:16:32.049Z,1108.00
2017-10-23T07:17:32.018Z,1248.00
2017-10-23T07:18:31.993Z,1432.00
2017-10-23T07:19:31.942Z,1608.00
2017-10-23T07:20:31.903Z,1732.00
2017-10-23T07:21:31.878Z,1840.00
2017-10-23T07:22:31.854Z,1924.00
2017-10-23T07:23:31.795Z,1932.00
2017-10-23T07:24:31.756Z,1936.00
2017-10-23T07:25:31.723Z,2008.00
2017-10-23T07:26:31.691Z,2052.00
2017-10-23T07:27:31.650Z,2036.00
2017-10-23T07:28:31.616Z,2024.00
2017-10-23T07:29:31.574Z,2004.00
2017-10-23T07:30:31.544Z,2032.00
2017-10-23T07:31:31.501Z,2148.00
2017-10-23T07:32:31.469Z,2260.00
2017-10-23T07:33:31.434Z,2284.00
2017-10-23T07:34:31.406Z,2264.00
2017-10-23T07:35:31.359Z,2216.00
2017-10-23T07:36:31.325Z,2176.00
2017-10-23T07:37:31.287Z,2184.00
2017-10-23T07:38:31.252Z,2220.00
2017-10-23T07:39:31.214Z,2232.00
2017-10-23T07:40:31.194Z,2196.00
2017-10-23T07:41:31.149Z,2144.00
2017-10-23T07:42:31.104Z,2112.00
2017-10-23T07:43:31.074Z,2176.00
2017-10-23T07:44:31.052Z,2336.00
2017-10-23T07:45:31.001Z,2504.00
2017-10-23T07:46:30.968Z,2616.00
2017-10-23T07:47:30.954Z,2728.00
2017-10-23T07:48:30.892Z,2820.00
2017-10-23T07:49:30.852Z,2804.00
2017-10-23T07:50:30.821Z,2836.00
2017-10-23T07:51:30.783Z,2992.00
2017-10-23T07:52:30.749Z,3172.00
2017-10-23T07:53:30.710Z,3356.00
2017-10-23T07:54:30.681Z,3604.00
2017-10-23T07:55:30.647Z,3792.00
2017-10-23T07:56:30.605Z,3796.00
2017-10-23T07:57:30.572Z,3676.00
2017-10-23T07:58:30.540Z,3540.00
2017-10-23T07:59:30.495Z,3400.00
2017-10-23T08:00:30.469Z,3212.00
2017-10-23T08:01:30.425Z,3264.00
2017-10-23T08:02:30.390Z,3340.00
2017-10-23T08:03:30.355Z,3348.00
2017-10-23T08:04:30.323Z,3492.00
2017-10-23T08:05:30.319Z,3720.00
2017-10-23T08:06:30.249Z,3992.00
2017-10-23T08:07:30.210Z,4188.00
2017-10-23T08:08:30.173Z,4324.00
2017-10-23T08:09:30.143Z,4496.00
2017-10-23T08:10:30.110Z,4796.00
2017-10-23T08:11:30.072Z,5336.00
2017-10-23T08:12:30.031Z,6060.00
2017-10-23T08:13:29.998Z,6716.00
2017-10-23T08:14:29.973Z,7124.00
2017-10-23T08:15:29.930Z,7384.00
2017-10-23T08:16:29.892Z,7340.00
2017-10-23T08:17:29.861Z,7104.00
2017-10-23T08:18:29.817Z,6764.00
2017-10-23T08:19:29.786Z,6328.00
2017-10-23T08:20:29.744Z,6228.00
2017-10-23T08:21:29.723Z,6232.00
2017-10-23T08:22:29.695Z,6220.00
2017-10-23T08:23:29.642Z,6224.00
2017-10-23T08:24:29.612Z,6216.00
2017-10-23T08:25:29.571Z,6304.00
2017-10-23T08:26:29.536Z,6496.00
2017-10-23T08:27:29.499Z,6412.00
2017-10-23T08:28:29.470Z,6280.00
2017-10-23T08:29:29.432Z,6004.00
2017-10-23T08:30:29.405Z,5788.00
2017-10-23T08:31:29.373Z,5492.00
2017-10-23T08:32:29.337Z,5068.00
2017-10-23T08:33:29.290Z,4876.00
2017-10-23T08:34:29.266Z,4464.00
2017-10-23T08:35:29.218Z,4020.00
2017-10-23T08:36:29.184Z,3744.00
2017-10-23T08:37:29.158Z,3672.00
2017-10-23T08:38:29.119Z,3420.00
2017-10-23T08:39:29.082Z,3164.00
2017-10-23T08:40:29.080Z,2860.00
2017-10-23T08:41:29.009Z,2688.00
2017-10-23T08:42:28.981Z,2636.00
2017-10-23T08:43:28.964Z,2492.00
2017-10-23T08:44:28.908Z,2344.00
2017-10-23T08:45:28.881Z,2528.00
2017-10-23T08:46:28.889Z,2712.00
2017-10-23T08:47:28.818Z,2748.00
2017-10-23T08:48:28.764Z,2808.00
2017-10-23T08:49:28.773Z,2892.00
2017-10-23T08:50:28.704Z,2740.00
2017-10-23T08:51:28.694Z,2936.00
2017-10-23T08:52:28.623Z,3664.00
2017-10-23T08:53:28.601Z,3808.00
2017-10-23T08:54:28.558Z,3504.00
2017-10-23T08:55:28.523Z,3160.00
2017-10-23T08:56:28.487Z,2772.00
2017-10-23T08:57:28.457Z,2852.00
2017-10-23T08:58:28.410Z,3052.00
2017-10-23T08:59:28.377Z,3332.00
2017-10-23T09:00:28.370Z,3636.00
2017-10-23T09:01:28.312Z,3620.00
2017-10-23T09:02:28.278Z,3876.00
2017-10-23T09:03:28.235Z,4020.00
2017-10-23T09:04:28.199Z,4120.00
2017-10-23T09:05:28.176Z,4188.00
2017-10-23T09:06:28.127Z,3948.00
2017-10-23T09:07:28.112Z,3828.00
2017-10-23T09:08:28.055Z,3908.00
2017-10-23T09:09:28.025Z,3532.00
2017-10-23T09:10:28.016Z,3524.00
2017-10-23T09:11:27.959Z,3660.00
2017-10-23T09:12:27.937Z,3748.00
2017-10-23T09:13:27.881Z,3652.00
2017-10-23T09:14:27.857Z,3692.00
2017-10-23T09:15:28.225Z,3904.00
2017-10-23T09:16:27.774Z,3740.00
2017-10-23T09:17:27.738Z,3992.00
2017-10-23T09:18:27.711Z,4300.00
2017-10-23T09:19:27.670Z,3932.00
2017-10-23T09:20:27.639Z,4232.00
2017-10-23T09:21:27.602Z,4220.00
2017-10-23T09:22:27.561Z,3560.00
2017-10-23T09:23:27.525Z,3484.00
2017-10-23T09:24:27.491Z,3816.00
2017-10-23T09:25:27.471Z,4112.00
2017-10-23T09:26:27.429Z,4124.00
2017-10-23T09:27:27.384Z,4076.00
2017-10-23T09:28:27.350Z,4288.00
2017-10-23T09:29:27.319Z,4372.00
2017-10-23T09:30:27.278Z,4288.00
2017-10-23T09:31:27.242Z,4248.00
2017-10-23T09:32:27.220Z,4764.00
2017-10-23T09:33:27.181Z,4844.00
2017-10-23T09:34:27.147Z,5160.00
2017-10-23T09:35:27.109Z,5236.00
2017-10-23T09:36:27.070Z,4900.00
2017-10-23T09:37:27.040Z,4844.00
2017-10-23T09:38:27.083Z,4988.00
2017-10-23T09:39:27.129Z,5424.00
2017-10-23T09:40:27.087Z,5340.00
2017-10-23T09:41:27.026Z,5116.00
2017-10-23T09:42:26.980Z,5556.00
2017-10-23T09:43:26.944Z,5584.00
2017-10-23T09:44:26.896Z,6192.00
2017-10-23T09:45:26.802Z,5996.00
2017-10-23T09:46:26.789Z,5400.00
2017-10-23T09:47:26.791Z,6020.00
2017-10-23T09:48:26.732Z,5876.00
2017-10-23T09:49:26.697Z,5980.00
2017-10-23T09:50:26.624Z,5892.00
2017-10-23T09:51:26.539Z,5648.00
2017-10-23T09:52:26.509Z,4940.00
2017-10-23T09:53:26.465Z,5228.00
2017-10-23T09:54:26.443Z,5660.00
2017-10-23T09:55:26.401Z,5280.00
2017-10-23T09:56:26.382Z,5060.00
2017-10-23T09:57:26.333Z,5240.00
2017-10-23T09:58:26.308Z,6428.00
2017-10-23T09:59:26.266Z,6744.00
2017-10-23T10:00:26.231Z,6292.00
2017-10-23T10:01:26.187Z,6172.00
2017-10-23T10:02:26.156Z,6548.00
2017-10-23T10:03:26.128Z,6556.00
2017-10-23T10:04:26.078Z,6324.00
2017-10-23T10:05:26.056Z,6744.00
2017-10-23T10:06:26.010Z,6092.00
2017-10-23T10:07:25.979Z,6016.00
2017-10-23T10:08:25.942Z,7152.00
2017-10-23T10:09:25.910Z,7348.00
2017-10-23T10:10:25.877Z,7436.00
2017-10-23T10:11:25.838Z,7080.00
2017-10-23T10:12:25.809Z,6676.00
2017-10-23T10:13:25.774Z,5872.00
2017-10-23T10:14:25.739Z,5948.00
2017-10-23T10:15:25.697Z,5748.00
2017-10-23T10:16:25.674Z,5924.00
2017-10-23T10:17:25.636Z,5904.00
2017-10-23T10:18:25.592Z,5304.00
2017-10-23T10:19:25.561Z,4592.00
2017-10-23T10:20:25.519Z,4336.00
2017-10-23T10:21:25.492Z,4340.00
2017-10-23T10:22:25.470Z,4736.00
2017-10-23T10:23:25.428Z,5224.00
2017-10-23T10:24:25.384Z,5212.00
2017-10-23T10:25:25.350Z,5128.00
2017-10-23T10:26:25.315Z,6064.00
2017-10-23T10:27:25.284Z,6064.00
2017-10-23T10:28:25.251Z,6324.00
2017-10-23T10:29:25.207Z,5668.00
2017-10-23T10:30:25.173Z,4788.00
2017-10-23T10:31:25.147Z,4752.00
2017-10-23T10:32:25.105Z,4712.00
2017-10-23T10:33:25.078Z,4336.00
2017-10-23T10:34:25.081Z,4036.00
2017-10-23T10:35:25.039Z,4280.00
2017-10-23T10:36:24.973Z,4368.00
2017-10-23T10:37:24.934Z,4376.00
2017-10-23T10:38:24.902Z,4284.00
2017-10-23T10:39:24.874Z,4244.00
2017-10-23T10:40:24.846Z,4460.00
2017-10-23T10:41:24.794Z,4332.00
2017-10-23T10:42:24.765Z,4072.00
2017-10-23T10:43:24.719Z,4304.00
2017-10-23T10:44:24.687Z,4668.00
2017-10-23T10:45:24.656Z,4948.00
2017-10-23T10:46:24.617Z,4852.00
2017-10-23T10:47:24.587Z,4864.00
2017-10-23T10:48:24.557Z,4928.00
2017-10-23T10:49:24.518Z,5676.00
2017-10-23T10:50:24.488Z,6004.00
2017-10-23T10:51:24.473Z,6216.00
2017-10-23T10:52:24.462Z,6336.00
2017-10-23T10:53:24.382Z,6616.00
2017-10-23T10:54:24.344Z,6376.00
2017-10-23T10:55:24.311Z,6096.00
2017-10-23T10:56:24.274Z,6284.00
2017-10-23T10:57:24.312Z,6076.00
2017-10-23T10:58:24.212Z,5312.00
2017-10-23T10:59:24.161Z,4980.00
2017-10-23T11:00:24.134Z,4876.00
2017-10-23T11:01:24.103Z,4988.00
2017-10-23T11:02:24.070Z,4256.00
2017-10-23T11:03:24.047Z,3532.00
2017-10-23T11:04:23.993Z,3836.00
2017-10-23T11:05:23.958Z,4024.00
2017-10-23T11:06:23.929Z,4380.00
2017-10-23T11:07:23.887Z,4700.00
2017-10-23T11:08:23.867Z,5020.00
2017-10-23T11:09:23.816Z,5460.00
2017-10-23T11:10:23.792Z,6136.00
2017-10-23T11:11:23.788Z,6244.00
2017-10-23T11:12:23.726Z,5184.00
2017-10-23T11:13:23.691Z,4520.00
2017-10-23T11:14:23.657Z,4384.00
2017-10-23T11:15:23.622Z,4284.00
2017-10-23T11:16:23.579Z,3832.00
2017-10-23T11:17:23.546Z,3452.00
2017-10-23T11:18:23.526Z,3380.00
2017-10-23T11:19:23.478Z,3456.00
2017-10-23T11:20:23.438Z,3696.00
2017-10-23T11:21:23.409Z,3912.00
2017-10-23T11:22:23.389Z,3868.00
2017-10-23T11:23:23.344Z,3728.00
2017-10-23T11:24:23.303Z,3880.00
2017-10-23T11:25:23.322Z,3808.00
2017-10-23T11:26:23.232Z,3604.00
2017-10-23T11:27:23.191Z,3396.00
2017-10-23T11:28:23.179Z,3268.00
2017-10-23T11:29:23.206Z,3088.00
2017-10-23T11:30:23.118Z,2784.00
2017-10-23T11:31:23.069Z,2724.00
2017-10-23T11:32:23.029Z,2940.00
2017-10-23T11:33:22.986Z,2908.00
2017-10-23T11:34:23.005Z,2752.00
2017-10-23T11:35:22.918Z,2748.00
2017-10-23T11:36:22.910Z,2868.00
2017-10-23T11:37:22.847Z,2696.00
2017-10-23T11:38:22.845Z,2504.00
2017-10-23T11:39:22.798Z,2420.00
2017-10-23T11:40:22.806Z,2576.00
2017-10-23T11:41:22.710Z,2576.00
2017-10-23T11:42:22.684Z,2684.00
2017-10-23T11:43:22.646Z,2828.00
2017-10-23T11:44:22.632Z,2956.00
2017-10-23T11:45:22.573Z,2948.00
2017-10-23T11:46:22.531Z,2888.00
2017-10-23T11:47:22.513Z,2952.00
2017-10-23T11:48:22.491Z,3020.00
2017-10-23T11:49:22.505Z,3244.00
2017-10-23T11:50:22.401Z,3324.00
2017-10-23T11:51:22.363Z,3216.00
2017-10-23T11:52:22.320Z,3072.00
2017-10-23T11:53:22.288Z,2756.00
2017-10-23T11:54:22.263Z,2592.00
2017-10-23T11:55:22.217Z,2540.00
2017-10-23T11:56:22.189Z,2712.00
2017-10-23T11:57:22.145Z,3216.00
2017-10-23T11:58:22.107Z,3872.00
2017-10-23T11:59:22.072Z,3628.00
2017-10-23T12:00:22.036Z,3348.00
2017-10-23T12:01:22.039Z,3916.00
2017-10-23T12:02:21.968Z,3792.00
2017-10-23T12:03:21.953Z,3492.00
2017-10-23T12:04:21.897Z,3848.00
2017-10-23T12:05:21.869Z,4120.00
2017-10-23T12:06:21.827Z,4556.00
2017-10-23T12:07:21.794Z,4408.00
2017-10-23T12:08:21.761Z,3496.00
2017-10-23T12:09:21.724Z,3788.00
2017-10-23T12:10:21.697Z,3932.00
2017-10-23T12:11:21.651Z,3556.00
2017-10-23T12:12:21.619Z,3312.00
2017-10-23T12:13:21.580Z,3304.00
2017-10-23T12:14:21.542Z,3300.00
2017-10-23T12:15:21.511Z,3332.00
2017-10-23T12:16:21.473Z,2976.00
2017-10-23T12:17:21.504Z,2832.00
2017-10-23T12:18:21.401Z,3032.00
2017-10-23T12:19:21.371Z,2956.00
2017-10-23T12:20:21.333Z,3204.00
2017-10-23T12:21:21.303Z,2852.00
2017-10-23T12:22:21.264Z,2764.00
2017-10-23T12:23:21.237Z,2824.00
2017-10-23T12:24:21.219Z,2844.00
2017-10-23T12:25:21.154Z,3264.00
2017-10-23T12:26:21.126Z,3064.00
2017-10-23T12:27:21.103Z,2764.00
2017-10-23T12:28:21.069Z,2932.00
2017-10-23T12:29:21.012Z,3100.00
2017-10-23T12:30:20.976Z,2996.00
2017-10-23T12:31:20.946Z,2936.00
2017-10-23T12:32:20.901Z,2664.00
2017-10-23T12:33:20.868Z,2568.00
2017-10-23T12:34:20.843Z,2852.00
2017-10-23T12:35:20.809Z,2536.00
2017-10-23T12:36:20.768Z,2472.00
2017-10-23T12:37:20.761Z,2688.00